Time;durP1;ratioP1;P1;durP2;ratioP2;P2;SDS_P1;SDS_P2;PMS_P1;PMS_P2;Temp;Humidity;BMP_temperature;BMP_pressure;BME280_temperature;BME280_humidity;BME280_pressure;Samples;Min_cycle;Max_cycle;Signal;HPM_P1;HPM_P2
2022/06/28 00:00:04;;;;;;;;;;;17.80;99.90;18.00;99955.00;;;;347539;28;83320;-91
2022/06/28 00:00:16;;;;;;;;;;;17.80;99.90;18.00;99953.00;;;;345344;28;96663;-91
2022/06/28 00:00:28;;;;;;;;;;;17.80;99.90;18.00;99945.00;;;;344819;28;83371;-91
2022/06/28 00:00:39;;;;;;;;;;;17.80;99.90;17.90;99950.00;;;;345449;28;96448;-91
2022/06/28 00:00:52;;;;;;;;;;;17.80;99.90;17.90;99947.00;;;;346255;28;82260;-91
2022/06/28 00:01:04;;;;;;;;;;;17.80;99.90;17.90;99954.00;;;;344074;28;94826;-91
2022/06/28 00:01:16;;;;;;;;;;;17.80;99.90;17.90;99953.00;;;;345475;28;83520;-91
2022/06/28 00:01:28;;;;;;;;;;;17.80;99.90;17.90;99955.00;;;;346716;27;97038;-91
2022/06/28 00:01:40;;;;;;;;;;;17.80;99.90;17.90;99953.00;;;;347583;28;83358;-91
2022/06/28 00:01:52;;;;;;;;;;;17.80;99.90;18.00;99953.00;;;;345287;28;98247;-91
2022/06/28 00:02:04;;;;;;;;;;;17.80;99.90;17.90;99954.00;;;;346171;28;83284;-91
2022/06/28 00:02:16;;;;;;;;;;;17.80;99.90;17.90;99951.00;;;;346611;28;96373;-91
2022/06/28 00:02:28;;;;;;;;;;;17.80;99.90;18.00;99959.00;;;;344758;28;83410;-91
2022/06/28 00:02:40;;;;;;;;;;;17.80;99.90;18.00;99956.00;;;;348124;27;96070;-92
2022/06/28 00:02:52;;;;;;;;;;;17.80;99.90;18.00;99952.00;;;;344894;28;82339;-91
2022/06/28 00:03:04;;;;;;;;;;;17.80;99.90;18.00;99961.00;;;;346777;28;95906;-92
2022/06/28 00:03:16;;;;;;;;;;;17.80;99.90;18.10;99965.00;;;;347512;28;83485;-91
2022/06/28 00:03:28;;;;;;;;;;;17.80;99.90;18.10;99962.00;;;;345306;28;97063;-91
2022/06/28 00:03:41;;;;;;;;;;;17.80;99.90;18.10;99963.00;;;;344826;28;83266;-92
2022/06/28 00:03:52;;;;;;;;;;;17.80;99.90;18.20;99964.00;;;;345372;28;96341;-91
2022/06/28 00:04:04;;;;;;;;;;;17.80;99.90;18.20;99955.00;;;;348877;27;83462;-91
2022/06/28 00:04:17;;;;;;;;;;;17.90;99.90;18.10;99967.00;;;;345993;28;96448;-91
2022/06/28 00:04:29;;;;;;;;;;;17.90;99.90;18.00;99966.00;;;;346222;28;83254;-91
2022/06/28 00:04:40;;;;;;;;;;;17.90;99.90;18.00;99962.00;;;;346758;28;96340;-91
2022/06/28 00:04:52;;;;;;;;;;;17.80;99.90;18.00;99965.00;;;;346181;28;82362;-91
2022/06/28 00:05:11;;;;;;;;;;;17.90;99.90;18.00;99967.00;;;;346828;28;94140;-92
2022/06/28 00:05:23;;;;;;;;;;;17.90;99.90;17.90;99966.00;;;;346129;28;84143;-91
2022/06/28 00:05:35;;;;;;;;;;;17.80;99.90;17.90;99963.00;;;;346380;28;96722;-91
2022/06/28 00:05:46;;;;;;;;;;;17.90;99.90;18.00;99968.00;;;;344847;28;82425;-92
2022/06/28 00:05:58;;;;;;;;;;;17.80;99.90;18.10;99971.00;;;;342520;28;98017;-91
2022/06/28 00:06:10;;;;;;;;;;;17.80;99.90;18.00;99968.00;;;;344814;28;83498;-91
2022/06/28 00:06:22;;;;;;;;;;;17.80;99.90;17.90;99965.00;;;;344134;28;95277;-91
2022/06/28 00:06:34;;;;;;;;;;;17.80;99.90;17.90;99964.00;;;;343512;28;82398;-90
2022/06/28 00:06:46;;;;;;;;;;;17.90;99.90;17.90;99970.00;;;;344008;28;95532;-92
2022/06/28 00:06:58;;;;;;;;;;;17.80;99.90;17.90;99967.00;;;;343446;28;83404;-91
2022/06/28 00:07:09;;;;;;;;;;;17.80;99.90;17.90;99968.00;;;;343995;28;97054;-91
2022/06/28 00:07:21;;;;;;;;;;;17.80;99.90;17.90;99967.00;;;;346121;28;83425;-91
2022/06/28 00:07:33;;;;;;;;;;;17.80;99.90;17.90;99973.00;;;;345999;28;96104;-90
2022/06/28 00:07:45;;;;;;;;;;;17.80;99.90;18.00;99968.00;;;;346203;28;82424;-90
2022/06/28 00:07:57;;;;;;;;;;;17.80;99.90;18.10;99968.00;;;;348037;28;96370;-91
2022/06/28 00:08:09;;;;;;;;;;;17.80;99.90;18.10;99966.00;;;;347471;28;82402;-91
2022/06/28 00:08:20;;;;;;;;;;;17.80;99.90;18.10;99972.00;;;;347017;28;94150;-91
2022/06/28 00:08:32;;;;;;;;;;;17.90;99.90;18.00;99969.00;;;;347604;28;82488;-90
2022/06/28 00:08:44;;;;;;;;;;;17.80;99.90;18.00;99972.00;;;;345455;28;95291;-91
2022/06/28 00:08:56;;;;;;;;;;;17.80;99.90;18.00;99973.00;;;;351683;27;83305;-90
2022/06/28 00:09:07;;;;;;;;;;;17.80;99.90;17.90;99976.00;;;;347905;28;96583;-89
2022/06/28 00:09:19;;;;;;;;;;;17.80;99.90;18.00;99968.00;;;;347353;28;83408;-90
2022/06/28 00:09:31;;;;;;;;;;;17.80;99.90;17.90;99972.00;;;;345156;28;95681;-91
2022/06/28 00:09:43;;;;;;;;;;;17.80;99.90;18.00;99975.00;;;;348873;28;82409;-91
2022/06/28 00:09:55;;;;;;;;;;;17.80;99.90;17.90;99968.00;;;;346593;28;96084;-91
2022/06/28 00:10:07;;;;;;;;;;;17.80;99.90;17.90;99973.00;;;;348846;28;83402;-89
2022/06/28 00:10:19;;;;;;;;;;;17.80;99.90;17.90;99974.00;;;;347533;28;95787;-91
2022/06/28 00:10:31;;;;;;;;;;;17.80;99.90;17.90;99976.00;;;;347116;28;82476;-91
2022/06/28 00:10:43;;;;;;;;;;;17.80;99.90;17.90;99976.00;;;;343974;28;97126;-91
2022/06/28 00:10:54;;;;;;;;;;;17.80;99.90;17.90;99977.00;;;;346195;28;83385;-91
2022/06/28 00:11:06;;;;;;;;;;;17.80;99.90;17.90;99978.00;;;;345273;28;95464;-91
2022/06/28 00:11:18;;;;;;;;;;;17.80;99.90;17.90;99980.00;;;;344708;28;83430;-91
2022/06/28 00:11:30;;;;;;;;;;;17.80;99.90;18.00;99969.00;;;;345396;28;96873;-91
2022/06/28 00:11:42;;;;;;;;;;;17.80;99.90;17.90;99963.00;;;;347548;28;83555;-91
2022/06/28 00:11:53;;;;;;;;;;;17.80;99.90;17.90;99972.00;;;;345494;28;93635;-91
2022/06/28 00:12:06;;;;;;;;;;;17.80;99.90;17.90;99979.00;;;;347578;28;83425;-91
2022/06/28 00:12:17;;;;;;;;;;;17.80;99.90;17.90;99979.00;;;;345397;28;94282;-92
2022/06/28 00:12:29;;;;;;;;;;;17.80;99.90;17.90;99981.00;;;;347452;28;83384;-91
2022/06/28 00:12:41;;;;;;;;;;;17.80;99.90;17.90;99976.00;;;;345262;28;97104;-91
2022/06/28 00:12:54;;;;;;;;;;;17.80;99.90;17.80;99975.00;;;;347519;28;83410;-91
2022/06/28 00:13:05;;;;;;;;;;;17.80;99.90;17.90;99970.00;;;;344111;28;95102;-92
2022/06/28 00:13:17;;;;;;;;;;;17.80;99.90;17.90;99970.00;;;;347314;28;83473;-91
2022/06/28 00:13:29;;;;;;;;;;;17.70;99.90;17.90;99977.00;;;;345392;28;95993;-91
2022/06/28 00:13:41;;;;;;;;;;;17.80;99.90;17.80;99977.00;;;;346232;28;82429;-91
2022/06/28 00:13:52;;;;;;;;;;;17.70;99.90;17.90;99969.00;;;;343983;28;97615;-91
2022/06/28 00:16:04;;;;;;;;;;;17.80;99.90;17.90;99968.00;;;;346114;28;82358;-91
2022/06/28 00:16:16;;;;;;;;;;;17.80;99.90;17.90;99968.00;;;;347030;28;82633;-91
2022/06/28 00:16:28;;;;;;;;;;;17.80;99.90;17.80;99966.00;;;;345342;28;96418;-91
2022/06/28 00:16:40;;;;;;;;;;;17.80;99.90;17.90;99965.00;;;;346081;28;83211;-91
2022/06/28 00:16:52;;;;;;;;;;;17.70;99.90;18.00;99966.00;;;;345432;28;97404;-91
2022/06/28 00:17:04;;;;;;;;;;;17.80;99.90;18.00;99959.00;;;;344830;28;83461;-91
2022/06/28 00:17:16;;;;;;;;;;;17.80;99.90;18.00;99959.00;;;;346696;28;97931;-91
2022/06/28 00:17:27;;;;;;;;;;;17.80;99.90;18.00;99957.00;;;;344675;28;82650;-91
2022/06/28 00:17:40;;;;;;;;;;;17.80;99.90;18.00;99963.00;;;;346739;28;96066;-92
2022/06/28 00:17:52;;;;;;;;;;;17.80;99.90;18.00;99962.00;;;;347659;28;83183;-92
2022/06/28 00:18:03;;;;;;;;;;;17.80;99.90;18.00;99954.00;;;;345348;28;95259;-92
2022/06/28 00:18:15;;;;;;;;;;;17.80;99.90;18.00;99957.00;;;;347641;28;83366;-91
2022/06/28 00:18:27;;;;;;;;;;;17.80;99.90;18.10;99954.00;;;;343749;28;95319;-91
2022/06/28 00:18:39;;;;;;;;;;;17.80;99.90;18.00;99960.00;;;;346076;28;83375;-92
2022/06/28 00:18:51;;;;;;;;;;;17.80;99.90;18.00;99953.00;;;;346759;28;95447;-91
2022/06/28 00:19:03;;;;;;;;;;;17.80;99.90;18.00;99957.00;;;;346165;28;82506;-91
2022/06/28 00:19:14;;;;;;;;;;;17.80;99.90;18.00;99960.00;;;;345818;28;97547;-91
2022/06/28 00:19:26;;;;;;;;;;;17.80;99.90;18.00;99958.00;;;;346041;28;83359;-91
2022/06/28 00:19:38;;;;;;;;;;;17.80;99.90;18.00;99948.00;;;;346868;28;94181;-91
2022/06/28 00:19:50;;;;;;;;;;;17.80;99.90;18.00;99961.00;;;;347656;28;83284;-91
2022/06/28 00:20:02;;;;;;;;;;;17.80;99.90;18.00;99957.00;;;;346589;28;96930;-91
2022/06/28 00:20:14;;;;;;;;;;;17.80;99.90;18.00;99957.00;;;;344805;28;82508;-91
2022/06/28 00:20:25;;;;;;;;;;;17.80;99.90;17.90;99954.00;;;;345406;28;95757;-92
2022/06/28 00:20:37;;;;;;;;;;;17.80;99.90;17.90;99959.00;;;;347322;28;83481;-91
2022/06/28 00:20:49;;;;;;;;;;;17.80;99.90;18.00;99959.00;;;;346761;28;95979;-92
2022/06/28 00:21:01;;;;;;;;;;;17.80;99.90;18.00;99959.00;;;;346061;28;83452;-92
2022/06/28 00:21:13;;;;;;;;;;;17.80;99.90;18.00;99958.00;;;;343988;28;96625;-91
2022/06/28 00:21:25;;;;;;;;;;;17.80;99.90;18.00;99956.00;;;;347518;28;82501;-92
2022/06/28 00:21:37;;;;;;;;;;;17.80;99.90;18.00;99951.00;;;;345243;28;96319;-91
2022/06/28 00:21:49;;;;;;;;;;;17.80;99.90;18.00;99951.00;;;;346132;28;83489;-91
2022/06/28 00:22:01;;;;;;;;;;;17.80;99.90;18.00;99953.00;;;;345369;28;96404;-90
2022/06/28 00:22:12;;;;;;;;;;;17.80;99.90;18.10;99953.00;;;;345107;28;83253;-91
2022/06/28 00:22:24;;;;;;;;;;;17.80;99.90;18.10;99954.00;;;;343964;28;97151;-92
2022/06/28 00:22:36;;;;;;;;;;;17.80;99.90;18.10;99950.00;;;;346224;28;83231;-91
2022/06/28 00:22:48;;;;;;;;;;;17.80;99.90;18.00;99955.00;;;;348094;27;96953;-92
2022/06/28 00:23:00;;;;;;;;;;;17.80;99.90;18.00;99952.00;;;;346080;28;83325;-91
2022/06/28 00:23:12;;;;;;;;;;;17.80;99.90;18.00;99955.00;;;;342563;28;97547;-91
2022/06/28 00:23:24;;;;;;;;;;;17.90;99.90;18.10;99951.00;;;;347529;27;83379;-91
2022/06/28 00:23:36;;;;;;;;;;;17.80;99.90;18.00;99957.00;;;;345415;28;96269;-91
2022/06/28 00:23:48;;;;;;;;;;;17.80;99.90;18.10;99955.00;;;;347503;28;83454;-92
2022/06/28 00:24:00;;;;;;;;;;;17.80;99.90;18.10;99957.00;;;;346618;28;97438;-90
2022/06/28 00:24:12;;;;;;;;;;;17.80;99.90;18.20;99964.00;;;;347503;28;83415;-91
2022/06/28 00:24:24;;;;;;;;;;;17.90;99.90;18.10;99959.00;;;;346583;28;95560;-91
2022/06/28 00:24:36;;;;;;;;;;;17.90;99.90;18.10;99955.00;;;;346151;28;83447;-91
2022/06/28 00:24:48;;;;;;;;;;;17.90;99.90;18.10;99952.00;;;;343759;28;96193;-91
2022/06/28 00:24:59;;;;;;;;;;;17.90;99.90;18.10;99962.00;;;;346158;28;83398;-91
2022/06/28 00:25:11;;;;;;;;;;;17.90;99.90;18.00;99955.00;;;;343981;28;96854;-91
2022/06/28 00:25:23;;;;;;;;;;;17.90;99.90;18.10;99954.00;;;;346144;28;82722;-91
2022/06/28 00:25:35;;;;;;;;;;;17.90;99.90;18.00;99954.00;;;;345379;28;94320;-91
2022/06/28 00:25:46;;;;;;;;;;;17.90;99.90;18.00;99958.00;;;;347314;28;82262;-91
2022/06/28 00:25:58;;;;;;;;;;;17.90;99.90;18.00;99954.00;;;;347893;27;96953;-92
2022/06/28 00:26:11;;;;;;;;;;;17.90;99.90;18.00;99957.00;;;;347408;28;83472;-91
2022/06/28 00:26:22;;;;;;;;;;;17.90;99.90;18.00;99947.00;;;;345449;28;96708;-91
2022/06/28 00:26:34;;;;;;;;;;;17.90;99.90;18.00;99954.00;;;;347521;28;83223;-91
2022/06/28 00:26:46;;;;;;;;;;;17.90;99.90;18.00;99949.00;;;;346597;27;97519;-90
2022/06/28 00:26:59;;;;;;;;;;;17.90;99.90;18.00;99946.00;;;;347589;28;83395;-91
2022/06/28 00:27:10;;;;;;;;;;;17.90;99.90;18.00;99951.00;;;;348124;27;97824;-91
2022/06/28 00:27:22;;;;;;;;;;;17.90;99.90;18.00;99935.00;;;;347501;27;82446;-91
2022/06/28 00:27:34;;;;;;;;;;;17.90;99.90;18.00;99950.00;;;;346832;28;96449;-91
2022/06/28 00:27:46;;;;;;;;;;;17.90;99.90;18.10;99944.00;;;;346160;28;83386;-91
2022/06/28 00:27:57;;;;;;;;;;;17.90;99.90;18.10;99945.00;;;;343921;28;96741;-91
2022/06/28 00:28:09;;;;;;;;;;;17.90;99.90;18.10;99946.00;;;;345887;28;83440;-91
2022/06/28 00:28:21;;;;;;;;;;;17.90;99.90;18.10;99942.00;;;;344080;28;96692;-91
2022/06/28 00:28:33;;;;;;;;;;;17.90;99.90;18.10;99949.00;;;;344286;28;83547;-91
2022/06/28 00:28:45;;;;;;;;;;;17.90;99.90;18.10;99941.00;;;;345127;28;96849;-91
2022/06/28 00:28:57;;;;;;;;;;;17.90;99.90;18.00;99943.00;;;;348918;27;83376;-92
2022/06/28 00:29:08;;;;;;;;;;;17.90;99.90;17.90;99943.00;;;;345334;28;97478;-92
2022/06/28 00:29:20;;;;;;;;;;;17.80;99.90;17.90;99943.00;;;;344652;28;83420;-91
2022/06/28 00:29:32;;;;;;;;;;;17.80;99.90;17.90;99935.00;;;;343987;28;95248;-91
2022/06/28 00:29:44;;;;;;;;;;;17.80;99.90;17.90;99937.00;;;;346127;28;82383;-89
2022/06/28 00:29:55;;;;;;;;;;;17.80;99.90;18.00;99936.00;;;;344010;28;97196;-90
2022/06/28 00:30:08;;;;;;;;;;;17.80;99.90;18.00;99939.00;;;;344743;28;83464;-91
2022/06/28 00:30:20;;;;;;;;;;;17.80;99.90;18.00;99931.00;;;;344123;28;94789;-91
2022/06/28 00:30:32;;;;;;;;;;;17.80;99.90;17.90;99937.00;;;;344760;28;82494;-90
2022/06/28 00:30:43;;;;;;;;;;;17.80;99.90;17.90;99938.00;;;;348018;27;96206;-90
2022/06/28 00:30:55;;;;;;;;;;;17.80;99.90;17.90;99933.00;;;;346139;28;83502;-91
2022/06/28 00:31:07;;;;;;;;;;;17.80;99.90;17.90;99935.00;;;;346592;28;97568;-91
2022/06/28 00:31:21;;;;;;;;;;;17.80;99.90;17.90;99930.00;;;;343153;28;83394;-92
2022/06/28 00:31:33;;;;;;;;;;;17.80;99.90;17.90;99929.00;;;;347331;27;95750;-92
2022/06/28 00:31:45;;;;;;;;;;;17.80;99.90;17.90;99935.00;;;;345984;28;83468;-91
2022/06/28 00:31:57;;;;;;;;;;;17.70;99.90;17.90;99930.00;;;;345368;28;96651;-91
2022/06/28 00:32:08;;;;;;;;;;;17.80;99.90;17.90;99934.00;;;;344507;28;83527;-91
2022/06/28 00:32:20;;;;;;;;;;;17.80;99.90;17.80;99930.00;;;;346764;28;96990;-91
2022/06/28 00:32:32;;;;;;;;;;;17.70;99.90;17.90;99929.00;;;;346223;28;83391;-91
2022/06/28 00:32:44;;;;;;;;;;;17.80;99.90;17.90;99934.00;;;;343917;28;94872;-91
2022/06/28 00:32:56;;;;;;;;;;;17.80;99.90;17.90;99924.00;;;;347534;28;82551;-91
2022/06/28 00:33:08;;;;;;;;;;;17.70;99.90;17.90;99929.00;;;;346721;28;96329;-90
2022/06/28 00:33:19;;;;;;;;;;;17.70;99.90;18.00;99922.00;;;;347575;28;82450;-91
2022/06/28 00:33:31;;;;;;;;;;;17.70;99.90;18.00;99925.00;;;;346654;27;97026;-91
2022/06/28 00:33:43;;;;;;;;;;;17.70;99.90;17.90;99924.00;;;;344777;28;83418;-91
2022/06/28 00:33:55;;;;;;;;;;;17.70;99.90;18.00;99913.00;;;;346744;28;95645;-91
2022/06/28 00:34:07;;;;;;;;;;;17.80;99.90;18.00;99928.00;;;;347514;28;83488;-91
2022/06/28 00:34:18;;;;;;;;;;;17.80;99.90;18.00;99920.00;;;;345170;28;95949;-91
2022/06/28 00:34:30;;;;;;;;;;;17.80;99.90;18.00;99923.00;;;;344681;28;83391;-91
2022/06/28 00:34:42;;;;;;;;;;;17.80;99.90;18.00;99921.00;;;;343909;28;96767;-91
2022/06/28 00:34:54;;;;;;;;;;;17.80;99.90;18.00;99918.00;;;;347446;28;83238;-91
2022/06/28 00:35:09;;;;;;;;;;;17.80;99.90;18.00;99914.00;;;;345261;28;97821;-91
2022/06/28 00:35:21;;;;;;;;;;;17.80;99.90;18.00;99919.00;;;;347483;28;83274;-91
2022/06/28 00:35:33;;;;;;;;;;;17.80;99.90;18.10;99920.00;;;;346781;28;97137;-91
2022/06/28 00:35:45;;;;;;;;;;;17.80;99.90;18.10;99916.00;;;;344760;28;83472;-91
2022/06/28 00:35:57;;;;;;;;;;;17.80;99.90;18.10;99917.00;;;;343990;28;94917;-91
2022/06/28 00:36:08;;;;;;;;;;;17.80;99.90;18.10;99929.00;;;;347532;28;82532;-91
2022/06/28 00:36:20;;;;;;;;;;;17.80;99.90;18.10;99918.00;;;;345447;28;95226;-91
2022/06/28 00:36:32;;;;;;;;;;;17.80;99.90;18.10;99922.00;;;;347571;28;83350;-91
2022/06/28 00:36:44;;;;;;;;;;;17.80;99.90;18.10;99914.00;;;;346695;28;95201;-91
2022/06/28 00:36:56;;;;;;;;;;;17.80;99.90;18.00;99916.00;;;;348918;27;83446;-91
2022/06/28 00:37:08;;;;;;;;;;;17.90;99.90;18.00;99911.00;;;;346684;28;97768;-91
2022/06/28 00:37:19;;;;;;;;;;;17.80;99.90;18.10;99914.00;;;;348672;27;83618;-91
2022/06/28 00:37:31;;;;;;;;;;;17.90;99.90;18.00;99921.00;;;;345419;28;95929;-91
2022/06/28 00:37:44;;;;;;;;;;;17.90;99.90;18.10;99911.00;;;;347493;28;83295;-92
2022/06/28 00:37:56;;;;;;;;;;;17.90;99.90;18.10;99918.00;;;;346592;28;95352;-91
2022/06/28 00:38:07;;;;;;;;;;;17.90;99.90;18.20;99912.00;;;;346053;28;84133;-91
2022/06/28 00:38:19;;;;;;;;;;;17.90;99.90;18.20;99923.00;;;;345397;28;96960;-91
2022/06/28 00:38:31;;;;;;;;;;;17.90;99.90;18.10;99920.00;;;;347488;28;83413;-91
2022/06/28 00:38:43;;;;;;;;;;;17.90;99.90;18.00;99915.00;;;;346680;28;95540;-91
2022/06/28 00:38:55;;;;;;;;;;;17.90;99.90;18.10;99919.00;;;;347579;28;82480;-91
2022/06/28 00:39:06;;;;;;;;;;;17.90;99.90;18.00;99915.00;;;;346714;28;96582;-91
2022/06/28 00:39:18;;;;;;;;;;;17.90;99.90;18.10;99916.00;;;;344684;28;83419;-91
2022/06/28 00:39:30;;;;;;;;;;;17.90;99.90;18.10;99912.00;;;;345356;28;96557;-91
2022/06/28 00:39:42;;;;;;;;;;;17.90;99.90;18.00;99914.00;;;;346101;28;83491;-90
2022/06/28 00:39:53;;;;;;;;;;;17.90;99.90;18.10;99906.00;;;;345481;28;92884;-91
2022/06/28 00:40:06;;;;;;;;;;;17.90;99.90;18.00;99908.00;;;;347406;28;83396;-91
2022/06/28 00:40:18;;;;;;;;;;;17.90;99.90;18.00;99914.00;;;;346298;28;96719;-91
2022/06/28 00:40:31;;;;;;;;;;;17.90;99.90;18.00;99896.00;;;;348933;27;82524;-91
2022/06/28 00:40:52;;;;;;;;;;;17.90;99.90;18.10;99902.00;;;;346687;28;95432;-91
2022/06/28 00:41:04;;;;;;;;;;;17.90;99.90;18.10;99901.00;;;;348908;27;83357;-91
2022/06/28 00:41:16;;;;;;;;;;;17.90;99.90;18.10;99899.00;;;;346755;28;96354;-91
2022/06/28 00:41:28;;;;;;;;;;;17.90;99.90;18.10;99896.00;;;;349165;28;82489;-90
2022/06/28 00:41:40;;;;;;;;;;;17.90;99.90;18.20;99893.00;;;;345553;28;96123;-91
2022/06/28 00:41:51;;;;;;;;;;;17.90;99.90;18.20;99895.00;;;;350634;27;82239;-90
2022/06/28 00:42:04;;;;;;;;;;;17.90;99.90;18.10;99890.00;;;;348376;28;95470;-91
2022/06/28 00:42:15;;;;;;;;;;;17.90;99.90;18.20;99890.00;;;;346436;28;82553;-90
2022/06/28 00:42:27;;;;;;;;;;;17.90;99.90;18.20;99895.00;;;;347056;28;95921;-90
2022/06/28 00:42:39;;;;;;;;;;;17.90;99.90;18.10;99886.00;;;;349149;28;82554;-91
2022/06/28 00:42:52;;;;;;;;;;;17.90;99.90;18.10;99894.00;;;;348438;28;96283;-91
2022/06/28 00:43:03;;;;;;;;;;;17.90;99.90;18.00;99884.00;;;;345321;28;82380;-90
2022/06/28 00:43:15;;;;;;;;;;;17.90;99.90;18.10;99883.00;;;;346653;28;96288;-91
2022/06/28 00:43:27;;;;;;;;;;;17.90;99.90;18.10;99887.00;;;;349979;27;82513;-90
2022/06/28 00:43:39;;;;;;;;;;;17.90;99.90;18.20;99885.00;;;;345706;28;96540;-90
2022/06/28 00:43:51;;;;;;;;;;;17.90;99.90;18.20;99878.00;;;;345768;28;82510;-91
2022/06/28 00:44:03;;;;;;;;;;;17.90;99.90;18.20;99883.00;;;;345284;28;95953;-90
2022/06/28 00:44:15;;;;;;;;;;;17.90;99.90;18.20;99876.00;;;;347425;28;83358;-91
2022/06/28 00:44:27;;;;;;;;;;;18.00;99.90;18.20;99882.00;;;;345420;28;96170;-91
2022/06/28 00:44:39;;;;;;;;;;;18.00;99.90;18.20;99878.00;;;;347450;28;83423;-91
2022/06/28 00:44:51;;;;;;;;;;;18.00;99.90;18.20;99876.00;;;;344119;28;95318;-91
2022/06/28 00:45:04;;;;;;;;;;;18.00;99.90;18.20;99877.00;;;;344766;28;83483;-91
2022/06/28 00:45:16;;;;;;;;;;;18.00;99.90;18.20;99883.00;;;;343935;28;97357;-91
2022/06/28 00:45:27;;;;;;;;;;;18.00;99.90;18.20;99872.00;;;;344400;28;83704;-92
2022/06/28 00:45:41;;;;;;;;;;;18.00;99.90;18.10;99875.00;;;;346418;28;94185;-91
2022/06/28 00:45:53;;;;;;;;;;;18.00;99.90;18.10;99879.00;;;;346210;28;83205;-91
2022/06/28 00:46:07;;;;;;;;;;;18.00;99.90;18.10;99878.00;;;;344007;28;94968;-91
2022/06/28 00:46:19;;;;;;;;;;;18.00;99.90;18.20;99886.00;;;;345807;28;83631;-91
2022/06/28 00:46:33;;;;;;;;;;;18.00;99.90;18.20;99879.00;;;;346833;28;96405;-91
2022/06/28 00:46:45;;;;;;;;;;;18.00;99.90;18.20;99879.00;;;;347397;28;83481;-91
2022/06/28 00:46:57;;;;;;;;;;;18.00;99.90;18.20;99874.00;;;;348206;27;97016;-90
2022/06/28 00:47:09;;;;;;;;;;;18.00;99.90;18.20;99877.00;;;;346284;28;83372;-92
2022/06/28 00:47:21;;;;;;;;;;;18.00;99.90;18.20;99885.00;;;;346621;28;96391;-91
2022/06/28 00:47:33;;;;;;;;;;;18.00;99.90;18.30;99878.00;;;;346049;28;83363;-91
2022/06/28 00:47:44;;;;;;;;;;;18.00;99.90;18.20;99883.00;;;;346719;28;96172;-91
2022/06/28 00:47:56;;;;;;;;;;;18.00;99.90;18.20;99878.00;;;;348935;27;83044;-91
2022/06/28 00:48:09;;;;;;;;;;;18.00;99.90;18.20;99882.00;;;;346751;28;95676;-91
2022/06/28 00:48:21;;;;;;;;;;;18.00;99.90;18.20;99880.00;;;;346192;28;83473;-91
2022/06/28 00:48:32;;;;;;;;;;;18.00;99.90;18.20;99889.00;;;;345394;28;96850;-91
2022/06/28 00:48:44;;;;;;;;;;;18.00;99.90;18.10;99892.00;;;;347410;28;83430;-91
2022/06/28 00:48:56;;;;;;;;;;;18.00;99.90;18.10;99883.00;;;;345322;28;95454;-91
2022/06/28 00:49:08;;;;;;;;;;;18.00;99.90;18.10;99883.00;;;;346174;28;83397;-90
2022/06/28 00:49:20;;;;;;;;;;;18.00;99.90;18.20;99887.00;;;;346268;28;96962;-91
2022/06/28 00:49:32;;;;;;;;;;;18.00;99.90;18.20;99884.00;;;;347524;28;82504;-90
2022/06/28 00:49:44;;;;;;;;;;;18.00;99.90;18.20;99886.00;;;;345327;28;96614;-91
2022/06/28 00:49:56;;;;;;;;;;;18.00;99.90;18.20;99888.00;;;;346163;28;82454;-91
2022/06/28 00:50:08;;;;;;;;;;;18.00;99.90;18.20;99894.00;;;;345200;28;95006;-91
2022/06/28 00:50:20;;;;;;;;;;;18.00;99.90;18.10;99886.00;;;;347607;28;83152;-92
2022/06/28 00:50:35;;;;;;;;;;;18.00;99.90;18.20;99889.00;;;;345411;28;96244;-91
2022/06/28 00:50:46;;;;;;;;;;;18.00;99.90;18.20;99881.00;;;;347384;28;83520;-91
2022/06/28 00:50:58;;;;;;;;;;;18.00;99.90;18.20;99891.00;;;;346629;28;95565;-90
2022/06/28 00:51:10;;;;;;;;;;;18.00;99.90;18.20;99885.00;;;;346177;28;82614;-91
2022/06/28 00:51:24;;;;;;;;;;;18.00;99.90;18.20;99884.00;;;;346635;28;97538;-91
2022/06/28 00:51:37;;;;;;;;;;;18.00;99.90;18.10;99883.00;;;;348986;27;83377;-91
2022/06/28 00:51:48;;;;;;;;;;;18.00;99.90;18.10;99885.00;;;;343876;28;96715;-91
2022/06/28 00:52:02;;;;;;;;;;;18.00;99.90;18.20;99886.00;;;;347415;27;82480;-91
2022/06/28 00:52:14;;;;;;;;;;;18.00;99.90;18.20;99885.00;;;;345472;28;95829;-91
2022/06/28 00:52:26;;;;;;;;;;;18.00;99.90;18.20;99886.00;;;;346231;28;83242;-91
2022/06/28 00:53:03;;;;;;;;;;;18.00;99.90;18.20;99891.00;;;;345324;28;96620;-91
2022/06/28 00:53:16;;;;;;;;;;;18.00;99.90;18.20;99891.00;;;;346167;28;83343;-91
2022/06/28 00:53:27;;;;;;;;;;;18.00;99.90;18.20;99895.00;;;;346667;28;96532;-90
2022/06/28 00:53:39;;;;;;;;;;;18.10;99.90;18.10;99896.00;;;;347423;28;83350;-91
2022/06/28 00:53:51;;;;;;;;;;;18.00;99.90;18.20;99885.00;;;;345312;28;96662;-91
2022/06/28 00:54:03;;;;;;;;;;;18.00;99.90;18.20;99895.00;;;;344682;28;83456;-90
2022/06/28 00:54:15;;;;;;;;;;;18.00;99.90;18.20;99891.00;;;;346796;28;95275;-91
2022/06/28 00:54:27;;;;;;;;;;;18.00;99.90;18.10;99905.00;;;;346126;28;83186;-91
2022/06/28 00:54:38;;;;;;;;;;;18.00;99.90;18.10;99889.00;;;;346735;27;95362;-91
2022/06/28 00:54:50;;;;;;;;;;;18.00;99.90;18.10;99892.00;;;;348930;27;83535;-91
2022/06/28 00:55:02;;;;;;;;;;;18.00;99.90;18.20;99894.00;;;;345440;28;95493;-92
2022/06/28 00:55:14;;;;;;;;;;;18.00;99.90;18.20;99894.00;;;;347951;27;83333;-91
2022/06/28 00:55:26;;;;;;;;;;;18.00;99.90;18.20;99898.00;;;;345307;28;96370;-90
2022/06/28 00:55:37;;;;;;;;;;;18.00;99.90;18.10;99896.00;;;;348986;27;83327;-91
2022/06/28 00:55:49;;;;;;;;;;;18.00;99.90;18.10;99900.00;;;;346674;28;97513;-91
2022/06/28 00:56:01;;;;;;;;;;;18.00;99.90;18.00;99896.00;;;;348559;27;82547;-90
2022/06/28 00:56:13;;;;;;;;;;;18.00;99.90;18.10;99896.00;;;;346737;28;95523;-91
2022/06/28 00:56:25;;;;;;;;;;;18.00;99.90;18.00;99898.00;;;;347537;28;82297;-91
2022/06/28 00:56:36;;;;;;;;;;;18.00;99.90;18.00;99902.00;;;;345377;28;97081;-92
2022/06/28 00:56:48;;;;;;;;;;;18.00;99.90;18.00;99902.00;;;;348808;27;83394;-91
2022/06/28 00:57:00;;;;;;;;;;;18.00;99.90;18.00;99896.00;;;;346693;28;96478;-91
2022/06/28 00:57:12;;;;;;;;;;;17.90;99.90;18.10;99896.00;;;;343414;28;83526;-91
2022/06/28 00:57:24;;;;;;;;;;;17.90;99.90;18.10;99899.00;;;;346592;28;95922;-91
2022/06/28 00:57:36;;;;;;;;;;;17.90;99.90;18.20;99895.00;;;;349032;27;83433;-91
2022/06/28 00:57:47;;;;;;;;;;;18.00;99.90;18.10;99900.00;;;;345312;28;96720;-91
2022/06/28 00:58:00;;;;;;;;;;;17.90;99.90;18.10;99906.00;;;;347531;28;83325;-91
2022/06/28 00:58:13;;;;;;;;;;;18.00;99.90;18.10;99901.00;;;;345136;28;96393;-91
2022/06/28 00:58:25;;;;;;;;;;;18.00;99.90;18.10;99896.00;;;;347373;28;83345;-91
2022/06/28 00:58:36;;;;;;;;;;;17.90;99.90;18.10;99894.00;;;;344000;28;95598;-91
2022/06/28 00:58:48;;;;;;;;;;;17.90;99.90;18.10;99888.00;;;;346099;28;83406;-91
2022/06/28 00:59:01;;;;;;;;;;;17.90;99.90;18.10;99900.00;;;;345329;28;96566;-91
2022/06/28 00:59:13;;;;;;;;;;;18.00;99.90;18.10;99903.00;;;;344789;28;83427;-91
2022/06/28 00:59:25;;;;;;;;;;;17.90;99.90;18.20;99904.00;;;;345308;28;96699;-90
2022/06/28 00:59:36;;;;;;;;;;;17.90;99.90;18.10;99902.00;;;;344755;28;83710;-91
2022/06/28 00:59:48;;;;;;;;;;;18.00;99.90;18.10;99899.00;;;;343923;28;97839;-91
2022/06/28 01:00:00;;;;;;;;;;;18.00;99.90;18.20;99897.00;;;;344693;28;83361;-91
2022/06/28 01:00:15;;;;;;;;;;;17.90;99.90;18.10;99898.00;;;;345349;28;95196;-91
2022/06/28 01:00:28;;;;;;;;;;;17.90;99.90;18.10;99900.00;;;;344827;28;82434;-91
2022/06/28 01:00:42;;;;;;;;;;;18.00;99.90;18.10;99898.00;;;;346600;28;97701;-91
2022/06/28 01:00:53;;;;;;;;;;;17.90;99.90;18.20;99908.00;;;;346070;28;83506;-91
2022/06/28 01:01:05;;;;;;;;;;;18.00;99.90;18.10;99893.00;;;;345447;28;95547;-91
2022/06/28 01:01:17;;;;;;;;;;;18.00;99.90;18.20;99892.00;;;;346386;28;83473;-91
2022/06/28 01:01:29;;;;;;;;;;;18.00;99.90;18.20;99898.00;;;;344557;28;96516;-92
2022/06/28 01:01:41;;;;;;;;;;;18.00;99.90;18.10;99895.00;;;;347537;28;83381;-91
2022/06/28 01:01:53;;;;;;;;;;;18.00;99.90;18.10;99900.00;;;;345184;28;97631;-91